sensor_id;sensor_type;location;lat;lon;timestamp;P1;durP1;ratioP1;P2;durP2;ratioP2
76617;SDS011;65509;42.816;74.648;2023-04-26T00:01:35;23.95;;;6.70;;
76617;SDS011;65509;42.816;74.648;2023-04-26T00:04:00;17.13;;;5.25;;
76617;SDS011;65509;42.816;74.648;2023-04-26T00:06:27;14.15;;;4.75;;
76617;SDS011;65509;42.816;74.648;2023-04-26T00:08:52;20.15;;;4.75;;
76617;SDS011;65509;42.816;74.648;2023-04-26T00:11:17;14.18;;;3.90;;
76617;SDS011;65509;42.816;74.648;2023-04-26T00:13:43;17.10;;;4.97;;
76617;SDS011;65509;42.816;74.648;2023-04-26T00:16:08;10.88;;;3.45;;
76617;SDS011;65509;42.816;74.648;2023-04-26T00:18:34;19.02;;;4.00;;
76617;SDS011;65509;42.816;74.648;2023-04-26T00:20:59;18.60;;;5.85;;
76617;SDS011;65509;42.816;74.648;2023-04-26T00:23:25;13.85;;;4.57;;
76617;SDS011;65509;42.816;74.648;2023-04-26T00:25:51;9.98;;;3.67;;
76617;SDS011;65509;42.816;74.648;2023-04-26T00:28:16;11.10;;;4.18;;
76617;SDS011;65509;42.816;74.648;2023-04-26T00:30:41;15.45;;;4.07;;
76617;SDS011;65509;42.816;74.648;2023-04-26T00:33:11;11.60;;;3.72;;
76617;SDS011;65509;42.816;74.648;2023-04-26T00:35:37;15.02;;;5.43;;
76617;SDS011;65509;42.816;74.648;2023-04-26T00:38:02;13.20;;;4.05;;
76617;SDS011;65509;42.816;74.648;2023-04-26T00:40:29;12.57;;;4.65;;
76617;SDS011;65509;42.816;74.648;2023-04-26T00:42:57;20.75;;;7.53;;
76617;SDS011;65509;42.816;74.648;2023-04-26T00:45:23;16.85;;;6.78;;
76617;SDS011;65509;42.816;74.648;2023-04-26T00:47:49;17.38;;;6.68;;
76617;SDS011;65509;42.816;74.648;2023-04-26T00:50:14;17.60;;;5.78;;
76617;SDS011;65509;42.816;74.648;2023-04-26T00:52:40;22.70;;;5.90;;
76617;SDS011;65509;42.816;74.648;2023-04-26T00:55:06;14.45;;;4.65;;
76617;SDS011;65509;42.816;74.648;2023-04-26T00:57:32;14.85;;;4.90;;
76617;SDS011;65509;42.816;74.648;2023-04-26T00:59:57;17.58;;;5.07;;
76617;SDS011;65509;42.816;74.648;2023-04-26T01:02:23;18.10;;;5.55;;
76617;SDS011;65509;42.816;74.648;2023-04-26T01:04:48;17.83;;;5.65;;
76617;SDS011;65509;42.816;74.648;2023-04-26T01:07:14;19.75;;;4.13;;
76617;SDS011;65509;42.816;74.648;2023-04-26T01:09:40;17.73;;;5.30;;
76617;SDS011;65509;42.816;74.648;2023-04-26T01:12:07;17.45;;;4.38;;
76617;SDS011;65509;42.816;74.648;2023-04-26T01:14:33;15.45;;;4.03;;
76617;SDS011;65509;42.816;74.648;2023-04-26T01:17:00;17.98;;;4.35;;
76617;SDS011;65509;42.816;74.648;2023-04-26T01:19:26;13.95;;;4.55;;
76617;SDS011;65509;42.816;74.648;2023-04-26T01:21:52;15.43;;;4.55;;
76617;SDS011;65509;42.816;74.648;2023-04-26T01:24:17;11.98;;;3.63;;
76617;SDS011;65509;42.816;74.648;2023-04-26T01:26:43;13.07;;;3.35;;
76617;SDS011;65509;42.816;74.648;2023-04-26T01:29:18;16.70;;;3.83;;
76617;SDS011;65509;42.816;74.648;2023-04-26T01:31:44;17.60;;;3.22;;
76617;SDS011;65509;42.816;74.648;2023-04-26T01:34:09;11.07;;;2.92;;
76617;SDS011;65509;42.816;74.648;2023-04-26T01:36:35;10.05;;;3.03;;
76617;SDS011;65509;42.816;74.648;2023-04-26T01:39:00;16.85;;;3.75;;
76617;SDS011;65509;42.816;74.648;2023-04-26T01:41:25;13.32;;;3.58;;
76617;SDS011;65509;42.816;74.648;2023-04-26T01:43:51;15.57;;;4.40;;
76617;SDS011;65509;42.816;74.648;2023-04-26T01:46:17;11.05;;;3.83;;
76617;SDS011;65509;42.816;74.648;2023-04-26T01:48:42;17.33;;;4.43;;
76617;SDS011;65509;42.816;74.648;2023-04-26T01:51:08;15.88;;;4.22;;
76617;SDS011;65509;42.816;74.648;2023-04-26T01:53:33;21.17;;;4.32;;
76617;SDS011;65509;42.816;74.648;2023-04-26T01:56:02;15.00;;;4.60;;
76617;SDS011;65509;42.816;74.648;2023-04-26T01:58:28;15.88;;;4.65;;
76617;SDS011;65509;42.816;74.648;2023-04-26T02:00:53;26.10;;;5.50;;
76617;SDS011;65509;42.816;74.648;2023-04-26T02:03:19;15.02;;;5.40;;
76617;SDS011;65509;42.816;74.648;2023-04-26T02:05:45;22.67;;;5.60;;
76617;SDS011;65509;42.816;74.648;2023-04-26T02:08:10;16.13;;;5.15;;
76617;SDS011;65509;42.816;74.648;2023-04-26T02:10:36;21.75;;;6.07;;
76617;SDS011;65509;42.816;74.648;2023-04-26T02:13:01;31.60;;;6.07;;
76617;SDS011;65509;42.816;74.648;2023-04-26T02:15:27;20.33;;;5.40;;
76617;SDS011;65509;42.816;74.648;2023-04-26T02:17:52;23.17;;;5.82;;
76617;SDS011;65509;42.816;74.648;2023-04-26T02:20:19;24.15;;;6.45;;
76617;SDS011;65509;42.816;74.648;2023-04-26T02:22:45;26.33;;;7.03;;
76617;SDS011;65509;42.816;74.648;2023-04-26T02:25:10;22.15;;;5.68;;
76617;SDS011;65509;42.816;74.648;2023-04-26T02:27:36;21.23;;;5.53;;
76617;SDS011;65509;42.816;74.648;2023-04-26T02:30:02;26.80;;;5.93;;
76617;SDS011;65509;42.816;74.648;2023-04-26T02:32:28;17.55;;;5.60;;
76617;SDS011;65509;42.816;74.648;2023-04-26T02:34:54;27.70;;;6.03;;
76617;SDS011;65509;42.816;74.648;2023-04-26T02:37:20;19.00;;;4.85;;
76617;SDS011;65509;42.816;74.648;2023-04-26T02:39:49;24.27;;;5.75;;
76617;SDS011;65509;42.816;74.648;2023-04-26T02:42:15;18.33;;;5.03;;
76617;SDS011;65509;42.816;74.648;2023-04-26T02:44:41;18.70;;;4.93;;
76617;SDS011;65509;42.816;74.648;2023-04-26T02:47:07;13.88;;;4.05;;
76617;SDS011;65509;42.816;74.648;2023-04-26T02:49:32;20.95;;;4.68;;
76617;SDS011;65509;42.816;74.648;2023-04-26T02:51:58;29.48;;;5.43;;
76617;SDS011;65509;42.816;74.648;2023-04-26T02:54:23;19.33;;;5.15;;
76617;SDS011;65509;42.816;74.648;2023-04-26T02:56:48;44.50;;;7.05;;
76617;SDS011;65509;42.816;74.648;2023-04-26T02:59:14;35.78;;;5.68;;
76617;SDS011;65509;42.816;74.648;2023-04-26T03:01:39;20.77;;;5.78;;
76617;SDS011;65509;42.816;74.648;2023-04-26T03:04:05;19.58;;;4.93;;
76617;SDS011;65509;42.816;74.648;2023-04-26T03:06:31;19.58;;;4.93;;
76617;SDS011;65509;42.816;74.648;2023-04-26T03:08:57;20.35;;;5.38;;
76617;SDS011;65509;42.816;74.648;2023-04-26T03:11:23;21.20;;;5.60;;
76617;SDS011;65509;42.816;74.648;2023-04-26T03:13:48;20.10;;;4.90;;
76617;SDS011;65509;42.816;74.648;2023-04-26T03:16:14;32.90;;;6.10;;
76617;SDS011;65509;42.816;74.648;2023-04-26T03:18:40;24.35;;;5.55;;
76617;SDS011;65509;42.816;74.648;2023-04-26T03:21:05;15.65;;;5.30;;
76617;SDS011;65509;42.816;74.648;2023-04-26T03:23:31;17.08;;;5.20;;
76617;SDS011;65509;42.816;74.648;2023-04-26T03:25:56;21.15;;;5.45;;
76617;SDS011;65509;42.816;74.648;2023-04-26T03:28:22;15.75;;;5.10;;
76617;SDS011;65509;42.816;74.648;2023-04-26T03:30:48;24.08;;;5.47;;
76617;SDS011;65509;42.816;74.648;2023-04-26T03:33:16;27.73;;;5.35;;
76617;SDS011;65509;42.816;74.648;2023-04-26T03:35:42;18.92;;;5.40;;
76617;SDS011;65509;42.816;74.648;2023-04-26T03:38:07;17.45;;;5.60;;
76617;SDS011;65509;42.816;74.648;2023-04-26T03:40:33;16.50;;;5.07;;
76617;SDS011;65509;42.816;74.648;2023-04-26T03:42:58;20.75;;;5.70;;
76617;SDS011;65509;42.816;74.648;2023-04-26T03:45:24;18.85;;;4.80;;
76617;SDS011;65509;42.816;74.648;2023-04-26T03:47:56;17.77;;;4.82;;
76617;SDS011;65509;42.816;74.648;2023-04-26T03:50:28;23.48;;;4.60;;
76617;SDS011;65509;42.816;74.648;2023-04-26T03:52:53;19.05;;;4.53;;
76617;SDS011;65509;42.816;74.648;2023-04-26T03:55:19;16.90;;;4.50;;
76617;SDS011;65509;42.816;74.648;2023-04-26T03:57:44;22.45;;;5.25;;
76617;SDS011;65509;42.816;74.648;2023-04-26T04:00:10;22.63;;;5.50;;
76617;SDS011;65509;42.816;74.648;2023-04-26T04:02:38;16.48;;;4.60;;
76617;SDS011;65509;42.816;74.648;2023-04-26T04:05:06;20.25;;;5.10;;
76617;SDS011;65509;42.816;74.648;2023-04-26T04:07:32;13.30;;;4.35;;
76617;SDS011;65509;42.816;74.648;2023-04-26T04:09:58;21.85;;;4.60;;
76617;SDS011;65509;42.816;74.648;2023-04-26T04:12:24;10.68;;;4.40;;
76617;SDS011;65509;42.816;74.648;2023-04-26T04:14:50;22.02;;;5.93;;
76617;SDS011;65509;42.816;74.648;2023-04-26T04:17:16;19.20;;;5.22;;
76617;SDS011;65509;42.816;74.648;2023-04-26T04:19:42;14.40;;;4.40;;
76617;SDS011;65509;42.816;74.648;2023-04-26T04:22:07;18.92;;;4.95;;
76617;SDS011;65509;42.816;74.648;2023-04-26T04:24:33;24.13;;;4.68;;
76617;SDS011;65509;42.816;74.648;2023-04-26T04:26:58;18.73;;;5.32;;
76617;SDS011;65509;42.816;74.648;2023-04-26T04:29:25;17.33;;;4.47;;
76617;SDS011;65509;42.816;74.648;2023-04-26T04:31:51;21.52;;;5.55;;
76617;SDS011;65509;42.816;74.648;2023-04-26T04:34:17;16.25;;;4.90;;
76617;SDS011;65509;42.816;74.648;2023-04-26T04:36:43;15.57;;;5.97;;
76617;SDS011;65509;42.816;74.648;2023-04-26T04:39:17;44.70;;;17.52;;
76617;SDS011;65509;42.816;74.648;2023-04-26T04:41:43;26.20;;;9.30;;
76617;SDS011;65509;42.816;74.648;2023-04-26T04:44:12;20.50;;;5.53;;
76617;SDS011;65509;42.816;74.648;2023-04-26T04:46:39;26.33;;;7.78;;
76617;SDS011;65509;42.816;74.648;2023-04-26T04:49:05;22.02;;;6.18;;
76617;SDS011;65509;42.816;74.648;2023-04-26T04:51:34;94.10;;;10.23;;
76617;SDS011;65509;42.816;74.648;2023-04-26T04:54:20;46.60;;;7.10;;
76617;SDS011;65509;42.816;74.648;2023-04-26T04:56:46;30.98;;;6.85;;
76617;SDS011;65509;42.816;74.648;2023-04-26T04:59:11;18.50;;;5.38;;
76617;SDS011;65509;42.816;74.648;2023-04-26T05:01:37;19.63;;;5.78;;
76617;SDS011;65509;42.816;74.648;2023-04-26T05:04:03;25.50;;;6.43;;
76617;SDS011;65509;42.816;74.648;2023-04-26T05:06:29;19.33;;;5.35;;
76617;SDS011;65509;42.816;74.648;2023-04-26T05:08:56;21.10;;;6.07;;
76617;SDS011;65509;42.816;74.648;2023-04-26T05:14:28;34.92;;;6.40;;
76617;SDS011;65509;42.816;74.648;2023-04-26T05:16:54;25.77;;;6.00;;
76617;SDS011;65509;42.816;74.648;2023-04-26T05:19:19;23.85;;;5.20;;
76617;SDS011;65509;42.816;74.648;2023-04-26T05:21:48;17.83;;;4.40;;
76617;SDS011;65509;42.816;74.648;2023-04-26T05:24:13;24.70;;;4.75;;
76617;SDS011;65509;42.816;74.648;2023-04-26T05:26:38;15.63;;;3.88;;
76617;SDS011;65509;42.816;74.648;2023-04-26T05:29:04;19.80;;;4.70;;
76617;SDS011;65509;42.816;74.648;2023-04-26T05:31:30;25.42;;;6.50;;
76617;SDS011;65509;42.816;74.648;2023-04-26T05:33:55;29.52;;;6.32;;
76617;SDS011;65509;42.816;74.648;2023-04-26T05:36:21;17.00;;;4.13;;
76617;SDS011;65509;42.816;74.648;2023-04-26T05:38:50;39.13;;;5.80;;
76617;SDS011;65509;42.816;74.648;2023-04-26T05:41:15;24.30;;;5.07;;
76617;SDS011;65509;42.816;74.648;2023-04-26T05:43:41;18.63;;;4.90;;
76617;SDS011;65509;42.816;74.648;2023-04-26T05:46:06;29.38;;;5.65;;
76617;SDS011;65509;42.816;74.648;2023-04-26T05:48:32;17.20;;;5.55;;
76617;SDS011;65509;42.816;74.648;2023-04-26T05:50:57;33.88;;;7.10;;
76617;SDS011;65509;42.816;74.648;2023-04-26T05:53:23;22.60;;;7.18;;
76617;SDS011;65509;42.816;74.648;2023-04-26T05:55:48;39.83;;;8.23;;
76617;SDS011;65509;42.816;74.648;2023-04-26T05:58:14;31.20;;;6.97;;
76617;SDS011;65509;42.816;74.648;2023-04-26T06:00:39;30.30;;;7.72;;
76617;SDS011;65509;42.816;74.648;2023-04-26T06:03:05;28.05;;;6.75;;
76617;SDS011;65509;42.816;74.648;2023-04-26T06:05:31;38.75;;;7.70;;
76617;SDS011;65509;42.816;74.648;2023-04-26T06:07:57;34.35;;;8.18;;
76617;SDS011;65509;42.816;74.648;2023-04-26T06:10:22;21.30;;;6.78;;
76617;SDS011;65509;42.816;74.648;2023-04-26T06:12:48;30.48;;;7.82;;
76617;SDS011;65509;42.816;74.648;2023-04-26T06:15:13;25.65;;;6.60;;
76617;SDS011;65509;42.816;74.648;2023-04-26T06:17:39;21.42;;;5.43;;
76617;SDS011;65509;42.816;74.648;2023-04-26T06:20:09;29.83;;;7.30;;
76617;SDS011;65509;42.816;74.648;2023-04-26T06:22:34;25.42;;;5.85;;
76617;SDS011;65509;42.816;74.648;2023-04-26T06:25:00;25.25;;;6.38;;
76617;SDS011;65509;42.816;74.648;2023-04-26T06:27:26;31.45;;;6.57;;
76617;SDS011;65509;42.816;74.648;2023-04-26T06:29:54;33.08;;;7.80;;
76617;SDS011;65509;42.816;74.648;2023-04-26T06:32:23;42.88;;;7.57;;
76617;SDS011;65509;42.816;74.648;2023-04-26T06:34:51;44.50;;;8.80;;
76617;SDS011;65509;42.816;74.648;2023-04-26T06:37:16;22.00;;;5.97;;
76617;SDS011;65509;42.816;74.648;2023-04-26T06:39:42;27.60;;;6.55;;
76617;SDS011;65509;42.816;74.648;2023-04-26T06:42:07;17.63;;;5.20;;
76617;SDS011;65509;42.816;74.648;2023-04-26T06:44:35;27.30;;;6.10;;
76617;SDS011;65509;42.816;74.648;2023-04-26T06:47:01;26.52;;;6.10;;
76617;SDS011;65509;42.816;74.648;2023-04-26T06:49:26;31.65;;;6.00;;
76617;SDS011;65509;42.816;74.648;2023-04-26T06:51:52;23.85;;;6.38;;
76617;SDS011;65509;42.816;74.648;2023-04-26T06:54:17;27.48;;;6.60;;
76617;SDS011;65509;42.816;74.648;2023-04-26T06:56:43;18.73;;;5.88;;
76617;SDS011;65509;42.816;74.648;2023-04-26T06:59:08;25.95;;;6.03;;
76617;SDS011;65509;42.816;74.648;2023-04-26T07:01:34;24.00;;;6.13;;
76617;SDS011;65509;42.816;74.648;2023-04-26T07:04:00;26.70;;;6.32;;
76617;SDS011;65509;42.816;74.648;2023-04-26T07:06:27;49.95;;;8.18;;
76617;SDS011;65509;42.816;74.648;2023-04-26T07:08:52;39.33;;;7.18;;
76617;SDS011;65509;42.816;74.648;2023-04-26T07:11:18;35.50;;;7.32;;
76617;SDS011;65509;42.816;74.648;2023-04-26T07:13:43;37.45;;;7.80;;
76617;SDS011;65509;42.816;74.648;2023-04-26T07:16:09;35.92;;;6.65;;
76617;SDS011;65509;42.816;74.648;2023-04-26T07:18:35;42.40;;;8.00;;
76617;SDS011;65509;42.816;74.648;2023-04-26T07:21:00;30.17;;;6.63;;
76617;SDS011;65509;42.816;74.648;2023-04-26T07:23:27;30.05;;;6.60;;
76617;SDS011;65509;42.816;74.648;2023-04-26T07:25:53;23.60;;;6.95;;
76617;SDS011;65509;42.816;74.648;2023-04-26T07:28:18;34.63;;;7.90;;
76617;SDS011;65509;42.816;74.648;2023-04-26T07:30:47;36.92;;;8.35;;
76617;SDS011;65509;42.816;74.648;2023-04-26T07:33:12;25.20;;;6.00;;
76617;SDS011;65509;42.816;74.648;2023-04-26T07:35:38;28.67;;;4.97;;
76617;SDS011;65509;42.816;74.648;2023-04-26T07:38:03;24.92;;;6.60;;
76617;SDS011;65509;42.816;74.648;2023-04-26T07:40:29;21.63;;;4.88;;
76617;SDS011;65509;42.816;74.648;2023-04-26T07:42:55;22.13;;;4.68;;
76617;SDS011;65509;42.816;74.648;2023-04-26T07:45:21;19.02;;;4.00;;
76617;SDS011;65509;42.816;74.648;2023-04-26T07:47:46;19.48;;;4.15;;
76617;SDS011;65509;42.816;74.648;2023-04-26T07:50:15;14.57;;;3.33;;
76617;SDS011;65509;42.816;74.648;2023-04-26T07:52:40;13.52;;;3.10;;
76617;SDS011;65509;42.816;74.648;2023-04-26T07:55:07;17.75;;;4.18;;
76617;SDS011;65509;42.816;74.648;2023-04-26T07:57:33;24.67;;;5.55;;
76617;SDS011;65509;42.816;74.648;2023-04-26T07:59:58;25.20;;;5.53;;
76617;SDS011;65509;42.816;74.648;2023-04-26T08:02:24;11.52;;;2.83;;
76617;SDS011;65509;42.816;74.648;2023-04-26T08:04:49;15.05;;;3.25;;
76617;SDS011;65509;42.816;74.648;2023-04-26T08:07:19;10.27;;;2.78;;
76617;SDS011;65509;42.816;74.648;2023-04-26T08:09:44;12.38;;;2.92;;
76617;SDS011;65509;42.816;74.648;2023-04-26T08:12:10;15.63;;;3.17;;
76617;SDS011;65509;42.816;74.648;2023-04-26T08:14:36;10.98;;;3.20;;
76617;SDS011;65509;42.816;74.648;2023-04-26T08:17:03;15.60;;;2.95;;
76617;SDS011;65509;42.816;74.648;2023-04-26T08:19:28;23.35;;;3.50;;
76617;SDS011;65509;42.816;74.648;2023-04-26T08:21:56;29.88;;;3.72;;
76617;SDS011;65509;42.816;74.648;2023-04-26T08:24:22;23.58;;;4.72;;
76617;SDS011;65509;42.816;74.648;2023-04-26T08:26:51;12.05;;;2.75;;
76617;SDS011;65509;42.816;74.648;2023-04-26T08:29:16;15.52;;;3.30;;
76617;SDS011;65509;42.816;74.648;2023-04-26T08:31:42;13.02;;;2.97;;
76617;SDS011;65509;42.816;74.648;2023-04-26T08:34:08;13.35;;;3.15;;
76617;SDS011;65509;42.816;74.648;2023-04-26T08:36:38;18.75;;;4.20;;
76617;SDS011;65509;42.816;74.648;2023-04-26T08:39:04;17.23;;;3.50;;
76617;SDS011;65509;42.816;74.648;2023-04-26T08:41:41;16.25;;;4.70;;
76617;SDS011;65509;42.816;74.648;2023-04-26T08:44:07;12.32;;;3.25;;
76617;SDS011;65509;42.816;74.648;2023-04-26T08:46:35;16.13;;;3.30;;
76617;SDS011;65509;42.816;74.648;2023-04-26T08:51:41;40.90;;;5.72;;
76617;SDS011;65509;42.816;74.648;2023-04-26T08:54:08;28.10;;;7.32;;
76617;SDS011;65509;42.816;74.648;2023-04-26T08:56:34;16.85;;;3.50;;
76617;SDS011;65509;42.816;74.648;2023-04-26T08:59:00;16.40;;;5.25;;
76617;SDS011;65509;42.816;74.648;2023-04-26T09:01:28;20.30;;;4.13;;
76617;SDS011;65509;42.816;74.648;2023-04-26T09:03:57;13.38;;;3.17;;
76617;SDS011;65509;42.816;74.648;2023-04-26T09:06:23;15.50;;;3.10;;
76617;SDS011;65509;42.816;74.648;2023-04-26T09:08:48;12.32;;;2.72;;
76617;SDS011;65509;42.816;74.648;2023-04-26T09:11:15;10.20;;;2.65;;
76617;SDS011;65509;42.816;74.648;2023-04-26T09:13:41;13.32;;;2.47;;
76617;SDS011;65509;42.816;74.648;2023-04-26T09:16:10;18.48;;;3.30;;
76617;SDS011;65509;42.816;74.648;2023-04-26T09:18:54;23.33;;;7.40;;
76617;SDS011;65509;42.816;74.648;2023-04-26T09:21:23;17.85;;;4.20;;
76617;SDS011;65509;42.816;74.648;2023-04-26T09:23:58;18.40;;;4.18;;
76617;SDS011;65509;42.816;74.648;2023-04-26T09:26:25;40.92;;;5.10;;
76617;SDS011;65509;42.816;74.648;2023-04-26T09:29:09;18.02;;;3.33;;
76617;SDS011;65509;42.816;74.648;2023-04-26T09:34:01;18.35;;;3.20;;
76617;SDS011;65509;42.816;74.648;2023-04-26T09:36:26;11.05;;;2.47;;
76617;SDS011;65509;42.816;74.648;2023-04-26T09:38:52;10.35;;;2.00;;
76617;SDS011;65509;42.816;74.648;2023-04-26T09:41:17;14.70;;;3.10;;
76617;SDS011;65509;42.816;74.648;2023-04-26T09:43:47;9.18;;;1.90;;
76617;SDS011;65509;42.816;74.648;2023-04-26T09:46:19;21.00;;;3.03;;
76617;SDS011;65509;42.816;74.648;2023-04-26T09:48:46;16.52;;;2.72;;
76617;SDS011;65509;42.816;74.648;2023-04-26T09:51:24;15.65;;;2.95;;
76617;SDS011;65509;42.816;74.648;2023-04-26T09:53:50;9.10;;;2.35;;
76617;SDS011;65509;42.816;74.648;2023-04-26T09:56:19;14.82;;;2.72;;
76617;SDS011;65509;42.816;74.648;2023-04-26T10:01:10;16.02;;;5.85;;
76617;SDS011;65509;42.816;74.648;2023-04-26T10:03:36;17.90;;;3.13;;
76617;SDS011;65509;42.816;74.648;2023-04-26T10:06:05;13.13;;;3.00;;
76617;SDS011;65509;42.816;74.648;2023-04-26T10:08:30;13.35;;;2.55;;
76617;SDS011;65509;42.816;74.648;2023-04-26T10:10:57;14.13;;;3.00;;
76617;SDS011;65509;42.816;74.648;2023-04-26T10:13:22;14.60;;;3.00;;
76617;SDS011;65509;42.816;74.648;2023-04-26T10:15:48;15.27;;;3.80;;
76617;SDS011;65509;42.816;74.648;2023-04-26T10:18:15;24.02;;;6.70;;
76617;SDS011;65509;42.816;74.648;2023-04-26T10:20:42;8.85;;;3.00;;
76617;SDS011;65509;42.816;74.648;2023-04-26T10:23:11;15.30;;;3.67;;
76617;SDS011;65509;42.816;74.648;2023-04-26T10:25:40;13.35;;;2.83;;
76617;SDS011;65509;42.816;74.648;2023-04-26T10:28:06;17.95;;;6.05;;
76617;SDS011;65509;42.816;74.648;2023-04-26T10:30:32;13.95;;;3.10;;
76617;SDS011;65509;42.816;74.648;2023-04-26T10:33:17;11.85;;;3.13;;
76617;SDS011;65509;42.816;74.648;2023-04-26T10:38:27;19.02;;;3.95;;
76617;SDS011;65509;42.816;74.648;2023-04-26T10:40:52;17.27;;;5.93;;
76617;SDS011;65509;42.816;74.648;2023-04-26T10:46:01;15.85;;;3.70;;
76617;SDS011;65509;42.816;74.648;2023-04-26T10:48:38;13.27;;;2.83;;
76617;SDS011;65509;42.816;74.648;2023-04-26T10:55:55;11.40;;;2.60;;
76617;SDS011;65509;42.816;74.648;2023-04-26T10:58:26;19.15;;;3.63;;
76617;SDS011;65509;42.816;74.648;2023-04-26T11:01:05;10.68;;;2.30;;
76617;SDS011;65509;42.816;74.648;2023-04-26T11:03:31;20.85;;;3.50;;
76617;SDS011;65509;42.816;74.648;2023-04-26T11:05:57;20.17;;;3.20;;
76617;SDS011;65509;42.816;74.648;2023-04-26T11:08:28;12.65;;;2.88;;
76617;SDS011;65509;42.816;74.648;2023-04-26T11:13:30;11.93;;;2.40;;
76617;SDS011;65509;42.816;74.648;2023-04-26T11:15:59;17.90;;;4.95;;
76617;SDS011;65509;42.816;74.648;2023-04-26T11:18:28;23.85;;;3.42;;
76617;SDS011;65509;42.816;74.648;2023-04-26T11:20:54;16.30;;;2.80;;
76617;SDS011;65509;42.816;74.648;2023-04-26T11:23:19;20.42;;;2.92;;
76617;SDS011;65509;42.816;74.648;2023-04-26T11:25:45;14.85;;;2.80;;
76617;SDS011;65509;42.816;74.648;2023-04-26T11:28:10;21.65;;;5.55;;
76617;SDS011;65509;42.816;74.648;2023-04-26T11:30:36;12.23;;;3.10;;
76617;SDS011;65509;42.816;74.648;2023-04-26T11:33:02;16.85;;;4.25;;
76617;SDS011;65509;42.816;74.648;2023-04-26T11:35:36;11.75;;;2.28;;
76617;SDS011;65509;42.816;74.648;2023-04-26T11:38:03;40.10;;;6.88;;
76617;SDS011;65509;42.816;74.648;2023-04-26T11:40:30;14.27;;;2.80;;
76617;SDS011;65509;42.816;74.648;2023-04-26T11:43:05;18.92;;;3.67;;
76617;SDS011;65509;42.816;74.648;2023-04-26T11:45:31;18.92;;;3.28;;
76617;SDS011;65509;42.816;74.648;2023-04-26T11:47:57;28.23;;;6.43;;
76617;SDS011;65509;42.816;74.648;2023-04-26T11:50:23;14.20;;;3.00;;
76617;SDS011;65509;42.816;74.648;2023-04-26T11:52:52;24.10;;;8.73;;
76617;SDS011;65509;42.816;74.648;2023-04-26T11:55:21;15.13;;;3.70;;
76617;SDS011;65509;42.816;74.648;2023-04-26T11:57:48;31.17;;;7.10;;
76617;SDS011;65509;42.816;74.648;2023-04-26T12:00:14;30.52;;;6.65;;
76617;SDS011;65509;42.816;74.648;2023-04-26T12:02:43;27.52;;;7.82;;
76617;SDS011;65509;42.816;74.648;2023-04-26T12:05:09;22.38;;;3.78;;
76617;SDS011;65509;42.816;74.648;2023-04-26T12:07:35;25.90;;;9.85;;
76617;SDS011;65509;42.816;74.648;2023-04-26T12:10:14;22.05;;;4.53;;
76617;SDS011;65509;42.816;74.648;2023-04-26T12:12:44;24.92;;;7.55;;
76617;SDS011;65509;42.816;74.648;2023-04-26T12:15:14;27.13;;;6.10;;
76617;SDS011;65509;42.816;74.648;2023-04-26T12:17:39;17.20;;;3.65;;
76617;SDS011;65509;42.816;74.648;2023-04-26T12:20:11;21.85;;;5.25;;
76617;SDS011;65509;42.816;74.648;2023-04-26T12:22:37;22.45;;;4.97;;
76617;SDS011;65509;42.816;74.648;2023-04-26T12:25:05;16.38;;;3.40;;
76617;SDS011;65509;42.816;74.648;2023-04-26T12:27:31;30.95;;;3.53;;
76617;SDS011;65509;42.816;74.648;2023-04-26T12:29:56;14.73;;;2.63;;
76617;SDS011;65509;42.816;74.648;2023-04-26T12:32:22;63.65;;;23.60;;
76617;SDS011;65509;42.816;74.648;2023-04-26T12:34:48;79.10;;;34.63;;
76617;SDS011;65509;42.816;74.648;2023-04-26T12:37:13;34.30;;;11.63;;
76617;SDS011;65509;42.816;74.648;2023-04-26T12:39:39;31.55;;;8.27;;
76617;SDS011;65509;42.816;74.648;2023-04-26T12:42:07;19.92;;;6.70;;
76617;SDS011;65509;42.816;74.648;2023-04-26T12:44:33;17.98;;;4.93;;
76617;SDS011;65509;42.816;74.648;2023-04-26T12:47:01;37.20;;;6.35;;
76617;SDS011;65509;42.816;74.648;2023-04-26T12:49:26;24.45;;;4.85;;
76617;SDS011;65509;42.816;74.648;2023-04-26T12:51:53;27.33;;;5.15;;
76617;SDS011;65509;42.816;74.648;2023-04-26T12:54:19;36.50;;;5.55;;
76617;SDS011;65509;42.816;74.648;2023-04-26T12:56:46;34.75;;;4.95;;
76617;SDS011;65509;42.816;74.648;2023-04-26T12:59:12;36.63;;;4.82;;
76617;SDS011;65509;42.816;74.648;2023-04-26T13:01:44;24.00;;;4.80;;
76617;SDS011;65509;42.816;74.648;2023-04-26T13:04:12;24.20;;;5.93;;
76617;SDS011;65509;42.816;74.648;2023-04-26T13:06:44;23.35;;;4.85;;
76617;SDS011;65509;42.816;74.648;2023-04-26T13:09:10;23.30;;;5.80;;
76617;SDS011;65509;42.816;74.648;2023-04-26T13:11:38;29.17;;;6.35;;
76617;SDS011;65509;42.816;74.648;2023-04-26T13:14:03;25.70;;;6.10;;
76617;SDS011;65509;42.816;74.648;2023-04-26T13:16:31;33.92;;;8.95;;
76617;SDS011;65509;42.816;74.648;2023-04-26T13:18:56;36.28;;;7.47;;
76617;SDS011;65509;42.816;74.648;2023-04-26T13:21:22;27.55;;;6.28;;
76617;SDS011;65509;42.816;74.648;2023-04-26T13:23:50;24.65;;;4.53;;
76617;SDS011;65509;42.816;74.648;2023-04-26T13:26:16;33.78;;;7.10;;
76617;SDS011;65509;42.816;74.648;2023-04-26T13:28:42;32.58;;;6.18;;
76617;SDS011;65509;42.816;74.648;2023-04-26T13:31:08;18.88;;;4.32;;
76617;SDS011;65509;42.816;74.648;2023-04-26T13:33:43;23.58;;;3.90;;
76617;SDS011;65509;42.816;74.648;2023-04-26T13:36:11;15.52;;;4.10;;
76617;SDS011;65509;42.816;74.648;2023-04-26T13:38:47;19.98;;;3.88;;
76617;SDS011;65509;42.816;74.648;2023-04-26T13:41:12;16.23;;;3.05;;
76617;SDS011;65509;42.816;74.648;2023-04-26T13:43:38;16.13;;;3.50;;
76617;SDS011;65509;42.816;74.648;2023-04-26T13:46:06;15.13;;;3.63;;
76617;SDS011;65509;42.816;74.648;2023-04-26T13:48:32;45.55;;;19.65;;
76617;SDS011;65509;42.816;74.648;2023-04-26T13:51:00;40.55;;;15.98;;
76617;SDS011;65509;42.816;74.648;2023-04-26T13:53:47;37.33;;;13.75;;
76617;SDS011;65509;42.816;74.648;2023-04-26T13:56:12;23.52;;;6.70;;
76617;SDS011;65509;42.816;74.648;2023-04-26T13:58:39;17.40;;;4.50;;
76617;SDS011;65509;42.816;74.648;2023-04-26T14:01:04;19.58;;;4.20;;
76617;SDS011;65509;42.816;74.648;2023-04-26T14:03:30;23.20;;;7.90;;
76617;SDS011;65509;42.816;74.648;2023-04-26T14:06:01;24.00;;;7.30;;
76617;SDS011;65509;42.816;74.648;2023-04-26T14:08:30;20.63;;;6.53;;
76617;SDS011;65509;42.816;74.648;2023-04-26T14:10:55;27.58;;;8.43;;
76617;SDS011;65509;42.816;74.648;2023-04-26T14:13:21;30.13;;;8.15;;
76617;SDS011;65509;42.816;74.648;2023-04-26T14:15:53;33.65;;;12.38;;
76617;SDS011;65509;42.816;74.648;2023-04-26T14:18:21;97.03;;;44.60;;
76617;SDS011;65509;42.816;74.648;2023-04-26T14:20:47;113.38;;;51.60;;
76617;SDS011;65509;42.816;74.648;2023-04-26T14:23:12;88.13;;;36.72;;
76617;SDS011;65509;42.816;74.648;2023-04-26T14:25:49;25.25;;;8.95;;
76617;SDS011;65509;42.816;74.648;2023-04-26T14:28:36;39.42;;;6.28;;
76617;SDS011;65509;42.816;74.648;2023-04-26T14:33:54;22.00;;;5.28;;
76617;SDS011;65509;42.816;74.648;2023-04-26T14:36:20;33.88;;;5.93;;
76617;SDS011;65509;42.816;74.648;2023-04-26T14:39:02;25.00;;;5.03;;
76617;SDS011;65509;42.816;74.648;2023-04-26T14:41:28;26.58;;;5.30;;
76617;SDS011;65509;42.816;74.648;2023-04-26T14:43:59;23.13;;;5.05;;
76617;SDS011;65509;42.816;74.648;2023-04-26T14:46:27;27.20;;;4.65;;